aviador You're here:

FAOR Decoded Metar

TAMBO INTL AIRPT in SOUTH AFRICA
Report Time2017-08-19 01:00:00
UTC Time2017-08-19 01:52:50
Flight Rules vfr VFR
Wind090° at 11 kt
W.Rank090° ranks 21
Current wind is above 090° avg. (9.1)
Visibility9999 m
Phenomena:N/A
Clouds:N/A
Expected CloudBase > 1,200 ft AGL from Temp-Dew spread
CeilingNone
Temp03°C (ISA -1)
Dew Point00°C (81% RH)
AAT-2.9°C
QNH1028 hPa
Density Alt5,026 ft
Elevation5,550 ft
Report Wrong Elevation
Raw Report
METAR FAOR 190100Z 09011KT CAVOK 03/M00 Q1028 NOSIG=

Extra information for FAOR:More info

Metar Taf Metar & Taf Last 4 Metars F.Rules Stats Wind Profile Meteogram Temp Stats Airport Information Weather charts Add Link Nearby VenuesMetar ALERT Operation Metar Decoded Social comments